Impacts TAF Board
For situational awareness. Not to be used for flight planning purposes.
IDs:

KMLB - Melbourne Intl, FL, US

Issued at 1749 UTC 21 Sep 2021
Updated at 2021 UTC 21 Sep 2021
Potential Impact None Slight Moderate High
Time1953Z 21/21Z 21/22Z 21/23Z 22/00Z 22/01Z 22/02Z 22/03Z 22/04Z 22/05Z 22/06Z 22/07Z 22/08Z 22/09Z>>
Type OBS PRVL PRVL PRVL PRVL PRVL PRVL PRVL PRVL PRVL PRVL PRVL PRVL PRVL
VIS 10 >6 5 5 >6 >6 >6 >6 >6 >6 >6 >6 >6 >6
CIG -- -- 200 200 -- -- -- -- -- -- -- -- -- --
Cover SCT SCT BKN BKN SCT SCT SCT SCT SCT SCT SCT SCT SCT SCT
FltCat VFR VFR MVFR MVFR VFR VFR VFR VFR VFR VFR VFR VFR VFR VFR
WX -- VCTS -SHRA -SHRA -- -- -- -- -- -- -- -- -- --
WDir 140 110 130 130 VRB VRB VRB VRB VRB VRB VRB VRB VRB VRB
WSpd 11 9 7 7 4 4 4 4 4 4 4 4 4 4
WGst -- -- -- -- -- -- -- -- -- -- -- -- -- --
Raw TAF
KMLB 211749Z 2118/2218 11009KT P6SM VCTS SCT030CB SCT050
  TEMPO 2118/2121 VRB15G25KT 3SM TSRA BKN030CB
  FM212200 13007KT 5SM -SHRA SCT035 BKN200
  FM220000 VRB04KT P6SM FEW035 SCT150


Raw METAR
KMLB 211953Z 14011KT 10SM FEW090 SCT110 28/24 A3002 RMK AO2 SLP165 T02780239
KMLB 211853Z 11009KT 10SM SCT015 28/24 A3003 RMK AO2 SLP167 T02780239
KMLB 211753Z 10010KT 070V130 10SM FEW014 SCT085 28/24 A3004 RMK AO2 LTG DSNT SW-NW SLP173 T02830244 10289 20239 58009

METAR Board
Radar Display
Forecast Discussion
For situational awareness. Not to be used for flight planning purposes.